Boughton, United Kingdom
Current Conditions -  °F | °C
As of 1:20 AM on Tuesday 21 Oct 2014 (Local Time) from EGCN Reporting Station
Few Clouds Few Clouds  
Wind Chill: 55°   Ceiling: Unl
Heat Index: 55°   Visibility: 6mi
Dew Point: 50°   Wind: 16mph
Humidity: 82%   Direction: 190°S
Pressure: 29.65"   Gusts: NA
Location:  53.2°N, 0.98°W
Report Text: EGCN 210020Z 19014KT 9999 FEW045 13/10 Q1004
Loading
Personal Weather Stations






























Interactive Weather Map
Tropical Storm Tracking
New forecast layout! Learn more

10-Day Weather Forecast

Advertisements
Track Severe Weather on mobile